Historyczne dane pomiarowe

Dodano dane terminowe – wersja testowa.

Dane z okresu 1951-2019

Wersja bazy: 1.34 [2019-03-16, lista zmian], aktualizacja planowana na 2019-04-15

Dane meteo z obszaru Polski uzyskane na podstawie danych udostępnionych przez Instytut Meteorologii i Gospodarki Wodnej – Państwowy Instytut Badawczy.

 

Wybierz Datę:    

       

TemperaturaWilgotnośćZachmurzenieWiatrCiśnienieWidzialnośćZjawiska
 Data    tng td wb rh cc ccl cl cm ch dir g1 g2 mslp ppp      
1973-05-15 00:00:00 3.6--- 1.9 2.888wxwxwx12wx--- 836.1 0.0---wxw1
1973-05-15 01:00:00 2.6------wxwxwx15wx--- 835.3----wx
1973-05-15 02:00:00 2.9------wxwx15wx--- 834.9----wxw1
1973-05-15 03:00:00 0.9--- 0.9 0.9100wxwx12wx--- 834.5----wxw1
1973-05-15 04:00:00 0.6------wxwxwx18wx--- 834.5----wxw1
1973-05-15 05:00:00 -0.2------wxwx16wx--- 834.9----wxw1
1973-05-15 06:00:00 -1.5--- -1.7 -1.599wxwx16wx--- 835.0 5.2---wxw1
1973-05-15 07:00:00 -2.2------wxwx16wx--- 834.9----wxw1
1973-05-15 08:00:00 -2.6------wxwx10wx--- 835.6----wxw1
1973-05-15 09:00:00 -3.4--- -3.8 -3.497wxwx15wx--- 835.4----wxw1
1973-05-15 10:00:00 -3.2------wxwx12wx--- 836.3----wxw1
1973-05-15 11:00:00 -2.7------wxwx7wx--- 837.5----wxw1
1973-05-15 12:00:00 -4.1--- -4.3 -4.098wxwx13wx--- 837.7 1.4---wxw1
1973-05-15 13:00:00 -3.6------wxwxwx17wx--- 837.9----wxw1
1973-05-15 14:00:00 -3.5------wxwxwx12wx--- 838.0----wx
1973-05-15 15:00:00 -3.2--- -3.6 -3.297wxwxwx8wx--- 838.5----wxw1
1973-05-15 16:00:00 -3.0------wxwxwx9wx--- 838.4----wx
1973-05-15 17:00:00 -3.2------wxwxwx7wx--- 838.7----wx
1973-05-15 18:00:00 -3.6--- -4.1 -3.697wxwxwx15wx--- 838.6 0.0---wxw1
1973-05-15 19:00:00 -3.7------wxwx11wx--- 839.3----wxw1
1973-05-15 20:00:00 -3.8------wxwx13wx--- 839.1----wxw1
1973-05-15 21:00:00 -4.8--- -5.4 -4.895wxwxwx11wx--- 838.9----wxw1
1973-05-15 22:00:00 -4.8------wxwxwx7wx--- 839.1----wxw1
1973-05-15 23:00:00 -4.2------wxwx12wx--- 838.9----wxw1

 

Źródłem pochodzenia danych jest Instytut Meteorologii i Gospodarki Wodnej – Państwowy Instytut Badawczy. Dane Instytutu Meteorologii i Gospodarki Wodnej – Państwowego Instytutu Badawczego zostały przetworzone.

Dane źródłowe można odnaleźć na stronie https://dane.imgw.pl